createdAt,value
2023-01-29T00:04:24.215Z,94017.30
2023-01-29T00:09:31.607Z,94023.39
2023-01-29T00:14:37.388Z,94028.74
2023-01-29T00:19:42.978Z,94032.34
2023-01-29T00:24:48.584Z,94030.31
2023-01-29T00:30:11.789Z,94033.22
2023-01-29T00:35:17.360Z,94036.10
2023-01-29T00:40:23.394Z,94031.28
2023-01-29T00:45:28.905Z,94034.63
2023-01-29T00:50:34.494Z,94041.33
2023-01-29T00:55:40.090Z,94042.87
2023-01-29T01:00:47.259Z,94049.83
2023-01-29T01:05:53.065Z,94035.94
2023-01-29T01:11:04.252Z,94027.38
2023-01-29T01:16:18.908Z,94029.36
2023-01-29T01:21:24.474Z,94033.69
2023-01-29T01:26:30.121Z,94035.38
2023-01-29T01:31:35.644Z,94039.66
2023-01-29T01:36:41.533Z,94046.05
2023-01-29T01:41:48.617Z,94050.45
2023-01-29T01:46:54.225Z,94059.11
2023-01-29T01:52:01.770Z,94058.80
2023-01-29T01:57:11.902Z,94049.77
2023-01-29T02:02:36.097Z,94056.20
2023-01-29T02:08:04.412Z,94066.42
2023-01-29T02:13:09.918Z,94059.06
2023-01-29T02:18:17.934Z,94057.62
2023-01-29T02:23:29.335Z,94063.82
2023-01-29T02:28:48.332Z,94065.81
2023-01-29T02:34:05.761Z,94065.73
2023-01-29T02:39:20.215Z,94072.20
2023-01-29T02:44:39.977Z,94076.64
2023-01-29T02:49:57.247Z,94081.73
2023-01-29T02:55:06.783Z,94089.91
2023-01-29T03:00:15.655Z,94096.31
2023-01-29T03:05:24.351Z,94086.99
2023-01-29T03:10:38.417Z,94092.34
2023-01-29T03:15:47.175Z,94095.28
2023-01-29T03:20:57.023Z,94083.91
2023-01-29T03:26:20.187Z,94095.28
2023-01-29T03:31:44.842Z,94116.42
2023-01-29T03:37:09.431Z,94102.48
2023-01-29T03:42:35.915Z,94102.98
2023-01-29T03:48:02.461Z,94098.38
2023-01-29T03:53:14.441Z,94100.72
2023-01-29T03:58:28.546Z,94102.83
2023-01-29T04:03:42.613Z,94089.60
2023-01-29T04:09:14.260Z,94095.58
2023-01-29T04:14:20.006Z,94101.94
2023-01-29T04:19:25.934Z,94096.07
2023-01-29T04:24:31.618Z,94104.48
2023-01-29T04:29:57.260Z,94107.38
2023-01-29T04:35:14.711Z,94107.06
2023-01-29T04:40:27.193Z,94115.61
2023-01-29T04:45:41.824Z,94112.82
2023-01-29T04:51:09.768Z,94112.13
2023-01-29T04:56:24.051Z,94101.95
2023-01-29T05:01:33.530Z,94104.17
2023-01-29T05:06:39.664Z,94102.74
2023-01-29T05:11:46.823Z,94099.34
2023-01-29T05:16:53.889Z,94102.06
2023-01-29T05:21:59.510Z,94087.99
2023-01-29T05:32:44.913Z,94106.30
2023-01-29T05:37:50.534Z,94112.15
2023-01-29T05:42:56.631Z,94110.07
2023-01-29T05:48:02.025Z,94098.38
2023-01-29T05:53:07.383Z,94091.64
2023-01-29T05:58:12.950Z,94109.60
2023-01-29T06:03:18.411Z,94121.20
2023-01-29T06:08:23.896Z,94119.17
2023-01-29T06:28:19.787Z,94143.25
2023-01-29T06:33:27.025Z,94134.88
2023-01-29T06:38:34.634Z,94126.13
2023-01-29T06:43:41.877Z,94133.81
2023-01-29T06:48:48.713Z,94140.61
2023-01-29T06:53:56.552Z,94147.56
2023-01-29T06:59:03.205Z,94145.13
2023-01-29T07:04:10.339Z,94150.52
2023-01-29T07:09:17.453Z,94150.02
2023-01-29T07:14:24.366Z,94150.23
2023-01-29T07:19:31.260Z,94141.53
2023-01-29T07:24:38.138Z,94125.48
2023-01-29T07:29:44.941Z,94126.14
2023-01-29T07:34:51.700Z,94131.17
2023-01-29T07:39:59.027Z,94126.84
2023-01-29T07:45:07.139Z,94109.34
2023-01-29T07:50:14.450Z,94109.52
2023-01-29T07:55:21.292Z,94115.92
2023-01-29T08:00:28.321Z,94100.79
2023-01-29T08:05:36.065Z,94107.28
2023-01-29T08:10:43.691Z,94105.67
2023-01-29T08:15:50.858Z,94112.06
2023-01-29T08:21:04.710Z,94101.15
2023-01-29T08:26:11.902Z,94108.31
2023-01-29T08:31:23.458Z,94104.91
2023-01-29T08:36:30.437Z,94106.03
2023-01-29T08:41:37.266Z,94115.13
2023-01-29T08:46:43.981Z,94107.95
2023-01-29T08:51:52.016Z,94121.75
2023-01-29T08:56:59.240Z,94125.14
2023-01-29T09:02:08.224Z,94127.77
2023-01-29T09:07:19.089Z,94132.82
2023-01-29T09:12:23.347Z,94139.09
2023-01-29T09:17:30.081Z,94148.19
2023-01-29T09:22:37.431Z,94152.77
2023-01-29T09:27:44.312Z,94162.07
2023-01-29T09:32:53.981Z,94167.64
2023-01-29T09:37:59.465Z,94162.55
2023-01-29T09:43:44.336Z,94156.73
2023-01-29T09:48:55.635Z,94155.14
2023-01-29T09:54:21.747Z,94157.74
2023-01-29T09:59:32.185Z,94152.75
2023-01-29T10:04:52.548Z,94162.91
2023-01-29T10:10:33.762Z,94166.41
2023-01-29T10:15:50.623Z,94153.71
2023-01-29T10:21:16.857Z,94150.49
2023-01-29T10:26:27.466Z,94149.22
2023-01-29T10:31:39.410Z,94142.90
2023-01-29T10:36:51.671Z,94129.02
2023-01-29T10:42:29.838Z,94120.54
2023-01-29T10:48:11.151Z,94124.41
2023-01-29T10:53:40.116Z,94132.22
2023-01-29T10:58:56.421Z,94126.31
2023-01-29T11:04:06.234Z,94131.75
2023-01-29T11:09:34.538Z,94118.63
2023-01-29T11:14:52.232Z,94115.80
2023-01-29T11:19:59.129Z,94110.20
2023-01-29T11:25:21.480Z,94109.98
2023-01-29T11:30:43.583Z,93996.84
2023-01-29T11:35:52.701Z,94106.65
2023-01-29T11:41:12.935Z,94090.61
2023-01-29T11:46:21.247Z,94084.73
2023-01-29T11:51:31.231Z,94079.73
2023-01-29T11:56:46.792Z,94079.37
2023-01-29T12:01:53.537Z,94067.86
2023-01-29T12:07:00.874Z,94057.62
2023-01-29T12:12:37.809Z,94056.97
2023-01-29T12:17:49.094Z,94063.04
2023-01-29T12:23:09.190Z,94055.00
2023-01-29T12:28:20.820Z,94041.92
2023-01-29T12:33:59.227Z,94050.09
2023-01-29T12:39:05.991Z,94034.62
2023-01-29T12:44:35.052Z,94040.10
2023-01-29T12:49:44.035Z,94029.60
2023-01-29T12:55:00.496Z,94019.14
2023-01-29T13:00:12.638Z,94026.27
2023-01-29T13:05:28.625Z,94009.65
2023-01-29T13:10:48.743Z,94003.14
2023-01-29T13:15:59.655Z,94002.06
2023-01-29T13:21:08.013Z,93990.77
2023-01-29T13:26:14.891Z,94003.73
2023-01-29T13:31:34.453Z,93998.44
2023-01-29T13:36:48.246Z,93996.52
2023-01-29T13:41:56.648Z,93995.05
2023-01-29T13:47:07.347Z,93989.52
2023-01-29T13:52:45.446Z,93999.53
2023-01-29T13:57:57.932Z,93998.62
2023-01-29T14:03:12.043Z,93995.73
2023-01-29T14:08:40.530Z,93988.48
2023-01-29T14:13:50.361Z,93985.88
2023-01-29T14:19:03.501Z,93982.91
2023-01-29T14:24:23.829Z,93995.66
2023-01-29T14:29:38.902Z,93989.53
2023-01-29T14:34:53.103Z,93982.66
2023-01-29T14:40:24.279Z,93982.15
2023-01-29T14:45:41.813Z,93979.09
2023-01-29T14:50:54.613Z,93985.19
2023-01-29T14:56:19.270Z,93986.18
2023-01-29T15:01:30.930Z,93985.47
2023-01-29T15:07:04.812Z,93984.70
2023-01-29T15:12:36.474Z,93982.43
2023-01-29T15:17:59.560Z,93974.89
2023-01-29T15:23:08.470Z,93963.72
2023-01-29T15:28:15.780Z,93972.05
2023-01-29T15:33:23.011Z,93965.46
2023-01-29T15:38:30.020Z,93953.64
2023-01-29T15:43:43.190Z,93948.91
2023-01-29T15:48:51.308Z,93951.16
2023-01-29T15:54:04.258Z,93938.67
2023-01-29T15:59:20.623Z,93943.38
2023-01-29T16:04:32.328Z,93944.16
2023-01-29T16:09:39.584Z,93933.27
2023-01-29T16:14:46.522Z,93945.16
2023-01-29T16:20:02.122Z,93938.55
2023-01-29T16:25:14.702Z,93945.97
2023-01-29T16:30:22.387Z,93937.02
2023-01-29T16:35:29.280Z,93958.02
2023-01-29T16:40:39.429Z,93958.80
2023-01-29T16:46:04.823Z,93959.47
2023-01-29T16:51:27.349Z,93963.79
2023-01-29T16:56:36.512Z,93964.58
2023-01-29T17:01:43.718Z,93964.37
2023-01-29T17:07:00.746Z,93977.02
2023-01-29T17:12:14.972Z,93986.19
2023-01-29T17:17:21.890Z,93986.64
2023-01-29T17:22:28.783Z,93995.94
2023-01-29T17:27:35.834Z,94008.91
2023-01-29T17:32:44.207Z,93998.10
2023-01-29T17:37:51.257Z,93998.41
2023-01-29T17:42:58.051Z,94003.91
2023-01-29T17:48:04.764Z,94003.17
2023-01-29T17:53:11.693Z,94015.11
2023-01-29T17:58:25.308Z,94010.16
2023-01-29T18:03:31.162Z,94012.08
2023-01-29T18:08:40.854Z,94016.95
2023-01-29T18:13:47.656Z,94016.98
2023-01-29T18:18:55.681Z,94023.38
2023-01-29T18:24:02.475Z,94006.67
2023-01-29T18:29:09.358Z,94001.11
2023-01-29T18:34:16.547Z,93988.23
2023-01-29T18:39:23.576Z,93997.16
2023-01-29T18:44:30.968Z,94006.39
2023-01-29T18:49:39.424Z,93998.72
2023-01-29T18:54:46.164Z,93998.09
2023-01-29T18:59:55.418Z,94006.57
2023-01-29T19:05:02.347Z,94009.73
2023-01-29T19:10:11.903Z,94005.32
2023-01-29T19:15:20.306Z,93996.84
2023-01-29T19:20:27.253Z,94013.38
2023-01-29T19:25:35.624Z,93996.86
2023-01-29T19:30:42.460Z,93995.19
2023-01-29T19:35:49.422Z,93986.31
2023-01-29T19:40:56.546Z,93984.70
2023-01-29T19:46:04.140Z,93846.80
2023-01-29T19:51:13.633Z,93975.02
2023-01-29T19:56:21.277Z,93976.05
2023-01-29T20:01:29.885Z,93970.45
2023-01-29T20:06:36.771Z,93970.88
2023-01-29T20:11:43.922Z,93971.06
2023-01-29T20:16:50.860Z,93968.12
2023-01-29T20:21:57.739Z,93956.61
2023-01-29T20:27:04.991Z,93966.14
2023-01-29T20:32:12.328Z,93960.11
2023-01-29T20:37:20.025Z,93950.23
2023-01-29T20:42:27.055Z,93944.98
2023-01-29T20:47:33.920Z,93938.55
2023-01-29T20:52:42.323Z,93940.22
2023-01-29T20:58:05.064Z,93932.17
2023-01-29T21:02:58.419Z,93925.87
2023-01-29T21:08:05.169Z,93919.96
2023-01-29T21:13:15.502Z,93898.14
2023-01-29T21:18:22.418Z,93903.22
2023-01-29T21:23:29.740Z,93893.78
2023-01-29T21:28:36.479Z,93899.09
2023-01-29T21:33:44.121Z,93896.30
2023-01-29T21:38:51.057Z,93888.81
2023-01-29T21:43:57.927Z,93879.92
2023-01-29T21:49:05.972Z,93888.38
2023-01-29T21:54:13.403Z,93870.70
2023-01-29T21:59:20.350Z,93878.88
2023-01-29T22:04:27.217Z,93872.37
2023-01-29T22:09:34.060Z,93857.63
2023-01-29T22:14:42.319Z,93866.34
2023-01-29T22:19:50.679Z,93854.59
2023-01-29T22:24:59.227Z,93854.77
2023-01-29T22:30:07.963Z,93845.98
2023-01-29T22:35:14.910Z,93848.17
2023-01-29T22:40:21.758Z,93835.63
2023-01-29T22:45:28.404Z,93829.66
2023-01-29T22:50:35.254Z,93826.14
2023-01-29T22:55:42.313Z,93817.16
2023-01-29T23:00:51.930Z,93811.61
2023-01-29T23:06:25.961Z,93808.98
2023-01-29T23:11:32.800Z,93792.96
2023-01-29T23:16:39.711Z,93783.45
2023-01-29T23:21:46.616Z,93774.62
2023-01-29T23:27:10.873Z,93761.86
2023-01-29T23:32:21.390Z,93570.57
2023-01-29T23:37:28.456Z,93738.95
2023-01-29T23:42:35.251Z,93738.45
2023-01-29T23:47:42.458Z,93727.72
2023-01-29T23:52:49.934Z,93722.30
2023-01-29T23:57:57.723Z,93717.03
